Main page
METAR-TAF:

METAR-TAF

Airports :

Kirkwall Airport

Kirkwall, Scotland

latitude: 58-57N, longitude: 002-54W, elevation: 21 m

Current weather observation

The report was made 22 minutes ago, at 21:50 UTC
Wind 7 kt from the West/Southwest
Temperature 1°C
Humidity 80%
Pressure 993 hPa
Visibility 10 km or more

METAR: EGPA 222150Z AUTO 24007KT 9999 FEW038/// 01/M02 Q0993

Time: 22:12 (22:12 UTC)

Forecast

The report was made 2 hours and 16 minutes ago, at 19:56 UTC
Forecast valid from 22 at 21 UTC to 23 at 06 UTC
Wind 8 kt from the West
Visibility 10 km or more
Few clouds at a height of 4500 ft
Probability 40% :
Temporary
from 22 at 21 UTC to 23 at 06 UTC
Visibility: 4000 m
Broken clouds at a height of 1200 ft, Cumulonimbus.
rain showers, snow, light snow showers

TAF: EGPA 221956Z 2221/2306 26008KT 9999 FEW045 PROB40 TEMPO 2221/2306 4000 SHRASN -SHSN BKN012CB

Weather observations and forecasts of more than 4000 airports (METAR and TAF reports).

The available stations are represented by yellow and red dots on the map.

Hover mouse over dot to see the name of the station.

Then click to see weather observations and forecasts.

To change the map : click on the green buttons with a black cross to zoom in, on the green button with a dash to zoom out, or on the green arrows for adjacent maps.


METAR-TAF: